CheckWX is a tool to help pilots better visualize weather data.  It is not intended as a substitute for an official pre-flight weather briefing.

11:18:46 UTC

KPMD TAF
Palmdale Usaf Plant 42 Airport
Palmdale, California, USA
KPMD 170922Z 1709/1806 27018KT P6SM SKC FM171100 24010KT P6SM SKC FM171400 VRB03KT P6SM SKC FM172100 27012KT P6SM SKC

Sep-17@
09:00 UTC

Sep-17 @ 09:00 UTC

Sep-17@
11:00 UTC

Sep-17 @ 11:00 UTC

KPMD 170922Z 1709/1806 27018KT P6SM SKC

Expired

Wind
  • 270° at 18 KTS
Cloud Levels
  • Clear skies

Sep-17@
11:00 UTC

Sep-17 @ 11:00 UTC

Sep-17@
14:00 UTC

Sep-17 @ 14:00 UTC

FM171100 24010KT P6SM SKC

From

From Standard forecast or significant change

Wind
  • 240° at 10 KTS
Cloud Levels
  • Clear skies

Sep-17@
14:00 UTC

Sep-17 @ 14:00 UTC

Sep-17@
21:00 UTC

Sep-17 @ 21:00 UTC

FM171400 VRB03KT P6SM SKC

From

From Standard forecast or significant change

Wind
  • Variable at 3 KTS
Cloud Levels
  • Clear skies

Sep-17@
21:00 UTC

Sep-17 @ 21:00 UTC

Sep-18@
06:00 UTC

Sep-18 @ 06:00 UTC

FM172100 27012KT P6SM SKC

From

From Standard forecast or significant change

Wind
  • 270° at 12 KTS
Cloud Levels
  • Clear skies